createdAt,value
2018-06-09T00:02:21.367Z,80.13
2018-06-09T00:05:25.582Z,79.47
2018-06-09T00:08:29.709Z,79.36
2018-06-09T00:11:34.019Z,79.42
2018-06-09T00:14:38.353Z,78.75
2018-06-09T00:17:42.673Z,78.26
2018-06-09T00:20:46.961Z,78.28
2018-06-09T00:23:51.397Z,78.15
2018-06-09T00:26:55.696Z,78.07
2018-06-09T00:29:59.961Z,78.05
2018-06-09T00:33:04.210Z,77.12
2018-06-09T00:36:08.497Z,76.45
2018-06-09T00:39:12.749Z,75.93
2018-06-09T00:42:17.062Z,75.25
2018-06-09T00:45:21.454Z,74.49
2018-06-09T00:48:25.741Z,73.57
2018-06-09T00:51:29.957Z,72.87
2018-06-09T00:54:34.313Z,72.62
2018-06-09T00:57:38.580Z,71.75
2018-06-09T01:00:42.951Z,72.10
2018-06-09T01:03:47.235Z,72.67
2018-06-09T01:06:51.555Z,72.52
2018-06-09T01:09:55.829Z,72.10
2018-06-09T01:13:00.076Z,71.41
2018-06-09T01:16:04.307Z,71.47
2018-06-09T01:19:08.583Z,70.74
2018-06-09T01:22:12.857Z,71.57
2018-06-09T01:25:17.169Z,70.69
2018-06-09T01:28:21.420Z,70.83
2018-06-09T01:31:25.668Z,71.48
2018-06-09T01:34:29.924Z,72.15
2018-06-09T01:37:34.209Z,72.14
2018-06-09T01:40:38.484Z,72.69
2018-06-09T01:43:42.719Z,71.30
2018-06-09T01:46:46.989Z,70.95
2018-06-09T01:49:51.317Z,71.37
2018-06-09T01:52:55.569Z,71.00
2018-06-09T01:55:59.825Z,71.33
2018-06-09T01:59:04.096Z,71.44
2018-06-09T02:02:08.335Z,72.89
2018-06-09T02:05:12.598Z,72.88
2018-06-09T02:08:17.647Z,73.16
2018-06-09T02:11:21.932Z,73.98
2018-06-09T02:14:26.187Z,73.90
2018-06-09T02:17:30.453Z,74.56
2018-06-09T02:20:34.675Z,74.47
2018-06-09T02:23:38.962Z,74.98
2018-06-09T02:26:43.239Z,73.79
2018-06-09T02:29:47.517Z,74.21
2018-06-09T02:32:51.808Z,73.44
2018-06-09T02:35:56.056Z,72.76
2018-06-09T02:39:00.312Z,72.77
2018-06-09T02:42:04.560Z,73.16
2018-06-09T02:45:08.825Z,72.71
2018-06-09T02:48:13.201Z,72.82
2018-06-09T02:51:17.521Z,72.94
2018-06-09T02:54:21.790Z,72.61
2018-06-09T02:57:26.051Z,73.01
2018-06-09T03:00:30.321Z,73.58
2018-06-09T03:03:34.596Z,73.10
2018-06-09T03:06:38.897Z,72.44
2018-06-09T03:09:43.172Z,71.88
2018-06-09T03:12:47.425Z,72.31
2018-06-09T03:15:51.675Z,71.43
2018-06-09T03:18:55.935Z,71.06
2018-06-09T03:22:00.189Z,71.31
2018-06-09T03:25:04.444Z,70.17
2018-06-09T03:28:08.833Z,69.33
2018-06-09T03:31:13.080Z,68.46
2018-06-09T03:34:17.544Z,68.15
2018-06-09T03:37:21.801Z,67.70
2018-06-09T03:40:26.069Z,67.88
2018-06-09T03:43:30.406Z,68.49
2018-06-09T03:46:34.714Z,68.80
2018-06-09T03:49:39.060Z,68.65
2018-06-09T03:52:43.358Z,68.55
2018-06-09T03:55:47.597Z,68.38
2018-06-09T03:58:51.848Z,68.45
2018-06-09T04:01:56.105Z,68.74
2018-06-09T04:05:00.369Z,69.42
2018-06-09T04:08:04.645Z,68.16
2018-06-09T04:11:08.932Z,68.23
2018-06-09T04:14:13.197Z,67.73
2018-06-09T04:17:17.456Z,68.11
2018-06-09T04:20:21.732Z,69.12
2018-06-09T04:23:25.965Z,68.63
2018-06-09T04:26:30.193Z,69.23
2018-06-09T04:29:34.482Z,69.72
2018-06-09T04:32:38.737Z,68.89
2018-06-09T04:35:45.237Z,69.06
2018-06-09T04:38:49.488Z,68.50
2018-06-09T04:41:53.765Z,67.40
2018-06-09T04:44:58.032Z,67.12
2018-06-09T04:48:02.324Z,66.69
2018-06-09T04:51:06.648Z,66.00
2018-06-09T04:54:10.987Z,65.71
2018-06-09T04:57:15.293Z,64.61
2018-06-09T05:00:19.619Z,64.98
2018-06-09T05:03:23.937Z,63.56
2018-06-09T05:06:28.251Z,63.47
2018-06-09T05:09:32.595Z,64.33
2018-06-09T05:12:36.697Z,63.57
2018-06-09T05:15:41.046Z,62.96
2018-06-09T05:18:45.334Z,64.23
2018-06-09T05:21:49.658Z,63.99
2018-06-09T05:24:53.992Z,63.97
2018-06-09T05:27:58.321Z,64.04
2018-06-09T05:31:02.591Z,63.97
2018-06-09T05:34:07.024Z,63.88
2018-06-09T05:37:11.348Z,63.98
2018-06-09T05:40:15.665Z,63.91
2018-06-09T05:43:19.793Z,64.67
2018-06-09T05:46:24.080Z,64.43
2018-06-09T05:49:28.488Z,64.19
2018-06-09T05:52:32.746Z,64.99
2018-06-09T05:55:36.992Z,65.20
2018-06-09T05:58:41.274Z,66.30
2018-06-09T06:01:45.594Z,66.70
2018-06-09T06:04:49.945Z,67.33
2018-06-09T06:07:54.326Z,67.24
2018-06-09T06:10:58.644Z,67.17
2018-06-09T06:14:03.054Z,67.87
2018-06-09T06:17:07.412Z,66.81
2018-06-09T06:20:11.826Z,67.14
2018-06-09T06:23:16.110Z,68.01
2018-06-09T06:26:20.443Z,67.02
2018-06-09T06:29:24.774Z,67.64
2018-06-09T06:32:29.085Z,67.88
2018-06-09T06:35:33.408Z,68.01
2018-06-09T06:38:37.679Z,68.57
2018-06-09T06:41:42.070Z,68.67
2018-06-09T06:44:46.195Z,68.50
2018-06-09T06:47:50.502Z,67.06
2018-06-09T06:50:54.784Z,67.50
2018-06-09T06:53:59.091Z,66.07
2018-06-09T06:57:03.357Z,66.33
2018-06-09T07:00:07.604Z,64.78
2018-06-09T07:03:11.969Z,64.10
2018-06-09T07:06:16.264Z,64.62
2018-06-09T07:09:20.626Z,63.70
2018-06-09T07:12:25.039Z,63.81
2018-06-09T07:15:29.262Z,63.23
2018-06-09T07:18:33.580Z,62.53
2018-06-09T07:21:37.848Z,63.30
2018-06-09T07:24:42.270Z,63.03
2018-06-09T07:27:46.631Z,63.12
2018-06-09T07:30:50.987Z,63.30
2018-06-09T07:33:55.282Z,63.85
2018-06-09T07:36:59.586Z,63.96
2018-06-09T07:40:03.941Z,62.13
2018-06-09T07:43:08.234Z,60.62
2018-06-09T07:46:12.557Z,61.38
2018-06-09T07:49:16.821Z,62.62
2018-06-09T07:52:21.181Z,63.87
2018-06-09T07:55:25.469Z,63.56
2018-06-09T07:58:29.758Z,65.96
2018-06-09T08:01:34.111Z,65.73
2018-06-09T08:04:38.393Z,67.10
2018-06-09T08:07:42.776Z,67.85
2018-06-09T08:10:47.108Z,69.31
2018-06-09T08:13:51.429Z,68.52
2018-06-09T08:16:55.731Z,69.70
2018-06-09T08:19:59.995Z,71.92
2018-06-09T08:23:04.377Z,73.24
2018-06-09T08:26:08.807Z,73.12
2018-06-09T08:29:13.209Z,73.89
2018-06-09T08:32:17.544Z,75.65
2018-06-09T08:35:21.766Z,74.61
2018-06-09T08:38:26.097Z,76.17
2018-06-09T08:41:30.372Z,75.78
2018-06-09T08:44:34.674Z,76.73
2018-06-09T08:47:38.953Z,76.89
2018-06-09T08:50:43.369Z,76.73
2018-06-09T08:53:47.697Z,76.37
2018-06-09T08:56:52.022Z,77.99
2018-06-09T08:59:56.281Z,78.87
2018-06-09T09:03:00.569Z,79.53
2018-06-09T09:06:04.838Z,79.32
2018-06-09T09:09:09.917Z,80.05
2018-06-09T09:12:14.194Z,80.09
2018-06-09T09:15:18.501Z,80.62
2018-06-09T09:18:22.861Z,80.97
2018-06-09T09:21:27.156Z,82.46
2018-06-09T09:24:31.481Z,82.34
2018-06-09T09:27:35.893Z,83.83
2018-06-09T09:30:40.222Z,83.20
2018-06-09T09:33:44.573Z,83.16
2018-06-09T09:36:48.837Z,83.55
2018-06-09T09:39:53.102Z,83.24
2018-06-09T09:42:57.365Z,83.53
2018-06-09T09:46:01.749Z,82.63
2018-06-09T09:49:06.156Z,82.11
2018-06-09T09:52:10.521Z,81.66
2018-06-09T09:55:14.808Z,82.48
2018-06-09T09:58:19.088Z,82.44
2018-06-09T10:01:23.345Z,80.66
2018-06-09T10:04:27.624Z,81.75
2018-06-09T10:07:31.905Z,81.15
2018-06-09T10:10:36.223Z,80.25
2018-06-09T10:13:40.500Z,80.82
2018-06-09T10:16:44.763Z,80.47
2018-06-09T10:19:49.043Z,80.06
2018-06-09T10:22:53.358Z,79.97
2018-06-09T10:25:57.639Z,78.50
2018-06-09T10:29:01.913Z,79.06
2018-06-09T10:32:06.596Z,78.70
2018-06-09T10:35:10.894Z,79.34
2018-06-09T10:38:15.279Z,77.51
2018-06-09T10:41:19.702Z,76.46
2018-06-09T10:44:23.969Z,76.10
2018-06-09T10:47:28.324Z,77.06
2018-06-09T10:50:32.660Z,76.05
2018-06-09T10:53:36.950Z,75.94
2018-06-09T10:56:41.266Z,75.04
2018-06-09T10:59:45.572Z,76.26
2018-06-09T11:02:49.921Z,74.81
2018-06-09T11:05:54.192Z,75.31
2018-06-09T11:08:58.663Z,74.74
2018-06-09T11:12:02.941Z,74.93
2018-06-09T11:15:07.289Z,73.84
2018-06-09T11:18:11.622Z,72.17
2018-06-09T11:21:15.933Z,73.39
2018-06-09T11:24:20.562Z,71.57
2018-06-09T11:27:24.836Z,72.74
2018-06-09T11:30:29.145Z,72.28
2018-06-09T11:33:33.498Z,71.96
2018-06-09T11:36:37.816Z,70.87
2018-06-09T11:39:42.177Z,70.68
2018-06-09T11:42:46.502Z,70.50
2018-06-09T11:45:50.906Z,68.01
2018-06-09T11:48:55.208Z,67.87
2018-06-09T11:51:59.540Z,67.50
2018-06-09T11:55:03.615Z,64.86
2018-06-09T11:58:07.890Z,65.26
2018-06-09T12:01:12.166Z,65.29
2018-06-09T12:04:16.498Z,64.70
2018-06-09T12:07:20.772Z,64.32
2018-06-09T12:10:25.163Z,59.15
2018-06-09T12:13:29.553Z,56.56
2018-06-09T12:16:33.887Z,56.17
2018-06-09T12:19:38.314Z,53.89
2018-06-09T12:22:42.650Z,54.95
2018-06-09T12:25:54.222Z,51.98
2018-06-09T12:29:01.060Z,47.87
2018-06-09T12:32:05.410Z,48.85
2018-06-09T12:35:09.689Z,47.49
2018-06-09T12:38:14.043Z,47.97
2018-06-09T12:41:18.396Z,47.28
2018-06-09T12:44:22.658Z,47.40
2018-06-09T12:47:27.009Z,44.46
2018-06-09T12:50:31.345Z,47.79
2018-06-09T12:53:35.619Z,48.38
2018-06-09T12:56:39.978Z,47.01
2018-06-09T12:59:44.276Z,47.78
2018-06-09T13:02:48.564Z,46.78
2018-06-09T13:05:52.961Z,45.44
2018-06-09T13:08:57.206Z,44.29
2018-06-09T13:12:01.590Z,43.07
2018-06-09T13:15:05.972Z,42.15
2018-06-09T13:18:10.336Z,45.33
2018-06-09T13:21:14.647Z,46.61
2018-06-09T13:24:18.933Z,47.29
2018-06-09T13:27:23.256Z,45.19
2018-06-09T13:30:27.592Z,45.19
2018-06-09T13:33:31.860Z,43.56
2018-06-09T13:36:36.341Z,41.92
2018-06-09T13:39:40.732Z,41.42
2018-06-09T13:42:45.070Z,39.97
2018-06-09T13:45:49.445Z,40.56
2018-06-09T13:48:53.795Z,43.22
2018-06-09T13:51:58.116Z,43.61
2018-06-09T13:55:02.225Z,43.73
2018-06-09T13:58:06.562Z,42.66
2018-06-09T14:01:10.704Z,41.39
2018-06-09T14:04:14.984Z,42.43
2018-06-09T14:07:19.258Z,43.53
2018-06-09T14:10:23.537Z,44.91
2018-06-09T14:13:27.872Z,46.02
2018-06-09T14:16:32.201Z,44.28
2018-06-09T14:19:36.476Z,47.44
2018-06-09T14:22:40.793Z,48.91
2018-06-09T14:25:45.181Z,48.91
2018-06-09T14:28:49.490Z,49.15
2018-06-09T14:31:53.744Z,47.40
2018-06-09T14:34:58.434Z,47.30
2018-06-09T14:38:02.742Z,46.61
2018-06-09T14:41:07.054Z,47.26
2018-06-09T14:44:11.313Z,46.06
2018-06-09T14:47:15.656Z,49.53
2018-06-09T14:50:20.002Z,52.24
2018-06-09T14:53:24.349Z,51.92
2018-06-09T14:56:28.636Z,51.52
2018-06-09T14:59:32.950Z,51.16
2018-06-09T15:02:37.263Z,52.26
2018-06-09T15:15:53.104Z,52.08
2018-06-09T15:18:57.433Z,52.75
2018-06-09T15:22:01.717Z,52.88
2018-06-09T15:25:06.182Z,50.65
2018-06-09T15:28:10.332Z,48.46
2018-06-09T15:31:14.586Z,50.40
2018-06-09T15:34:18.914Z,51.30
2018-06-09T15:37:23.244Z,48.82
2018-06-09T15:40:27.555Z,50.67
2018-06-09T15:43:31.884Z,51.64
2018-06-09T15:46:36.226Z,50.41
2018-06-09T15:49:40.520Z,50.42
2018-06-09T15:52:44.905Z,50.25
2018-06-09T15:55:49.274Z,51.11
2018-06-09T15:58:53.598Z,52.37
2018-06-09T16:01:57.890Z,50.13
2018-06-09T16:05:02.213Z,51.63
2018-06-09T16:08:06.566Z,51.93
2018-06-09T16:11:10.913Z,52.71
2018-06-09T16:14:15.149Z,49.44
2018-06-09T16:17:19.516Z,50.29
2018-06-09T16:20:23.802Z,48.61
2018-06-09T16:23:28.091Z,49.04
2018-06-09T16:26:32.365Z,49.34
2018-06-09T16:29:36.672Z,49.01
2018-06-09T16:32:40.999Z,48.92
2018-06-09T16:35:45.320Z,46.60
2018-06-09T16:38:49.629Z,45.02
2018-06-09T16:41:53.956Z,44.38
2018-06-09T16:44:58.285Z,43.98
2018-06-09T16:48:02.565Z,41.63
2018-06-09T16:51:06.897Z,39.91
2018-06-09T16:54:11.247Z,38.13
2018-06-09T16:57:15.546Z,39.17
2018-06-09T17:00:19.870Z,34.60
2018-06-09T17:03:24.180Z,35.28
2018-06-09T17:06:28.505Z,35.96
2018-06-09T17:09:32.790Z,36.66
2018-06-09T17:12:37.104Z,36.50
2018-06-09T17:15:41.357Z,37.81
2018-06-09T17:18:45.699Z,39.98
2018-06-09T17:21:49.991Z,40.94
2018-06-09T17:24:54.332Z,41.72
2018-06-09T17:27:58.643Z,44.04
2018-06-09T17:31:03.011Z,45.73
2018-06-09T17:34:07.416Z,46.57
2018-06-09T17:37:11.812Z,48.16
2018-06-09T17:40:15.916Z,49.31
2018-06-09T17:43:20.244Z,49.58
2018-06-09T17:46:24.398Z,50.96
2018-06-09T17:49:28.759Z,51.99
2018-06-09T17:52:33.110Z,52.48
2018-06-09T17:55:37.412Z,54.63
2018-06-09T17:58:41.758Z,54.51
2018-06-09T18:01:46.079Z,55.00
2018-06-09T18:04:50.357Z,56.14
2018-06-09T18:07:54.727Z,56.71
2018-06-09T18:10:59.024Z,57.19
2018-06-09T18:14:03.357Z,58.56
2018-06-09T18:17:07.909Z,59.20
2018-06-09T18:20:12.269Z,59.90
2018-06-09T18:23:16.584Z,59.93
2018-06-09T18:26:20.914Z,60.20
2018-06-09T18:29:25.288Z,60.89
2018-06-09T18:32:29.568Z,61.32
2018-06-09T18:35:33.889Z,61.64
2018-06-09T18:38:38.623Z,61.91
2018-06-09T18:41:42.924Z,63.04
2018-06-09T18:44:46.960Z,62.69
2018-06-09T18:47:51.355Z,62.90
2018-06-09T18:50:55.703Z,63.32
2018-06-09T18:54:00.002Z,63.78
2018-06-09T18:57:04.293Z,62.43
2018-06-09T19:00:08.669Z,61.35
2018-06-09T19:03:13.026Z,61.43
2018-06-09T19:06:17.369Z,63.35
2018-06-09T19:09:21.720Z,63.13
2018-06-09T19:12:26.047Z,61.86
2018-06-09T19:15:30.471Z,62.55
2018-06-09T19:18:34.784Z,62.88
2018-06-09T19:21:39.038Z,64.30
2018-06-09T19:24:43.337Z,64.95
2018-06-09T19:27:47.706Z,64.95
2018-06-09T19:30:52.056Z,65.99
2018-06-09T19:33:56.493Z,66.14
2018-06-09T19:37:00.873Z,65.93
2018-06-09T19:40:05.221Z,67.38
2018-06-09T19:43:09.629Z,66.78
2018-06-09T19:46:13.994Z,66.93
2018-06-09T19:49:18.275Z,66.88
2018-06-09T19:52:22.595Z,67.78
2018-06-09T19:55:26.899Z,67.09
2018-06-09T19:58:31.038Z,67.18
2018-06-09T20:01:35.298Z,68.63
2018-06-09T20:04:39.659Z,68.34
2018-06-09T20:07:43.955Z,67.78
2018-06-09T20:10:48.296Z,67.63
2018-06-09T20:13:52.629Z,68.35
2018-06-09T20:16:56.914Z,69.57
2018-06-09T20:20:01.257Z,70.20
2018-06-09T20:23:05.588Z,71.15
2018-06-09T20:26:09.873Z,70.28
2018-06-09T20:29:14.222Z,71.24
2018-06-09T20:32:18.549Z,71.54
2018-06-09T20:35:22.867Z,71.81
2018-06-09T20:38:27.126Z,72.30
2018-06-09T20:41:31.461Z,72.27
2018-06-09T20:44:35.801Z,71.60
2018-06-09T20:47:40.109Z,72.34
2018-06-09T20:50:44.404Z,72.16
2018-06-09T20:53:48.780Z,72.23
2018-06-09T20:56:53.085Z,71.70
2018-06-09T20:59:57.397Z,70.34
2018-06-09T21:03:01.651Z,69.29
2018-06-09T21:06:06.181Z,68.68
2018-06-09T21:09:10.658Z,68.36
2018-06-09T21:12:14.964Z,68.93
2018-06-09T21:15:19.301Z,68.92
2018-06-09T21:18:23.604Z,68.74
2018-06-09T21:21:27.940Z,70.10
2018-06-09T21:24:32.287Z,70.10
2018-06-09T21:28:39.657Z,69.93
2018-06-09T21:31:43.782Z,70.08
2018-06-09T21:35:06.380Z,70.17
2018-06-09T21:38:16.032Z,70.74
2018-06-09T21:41:27.498Z,71.48
2018-06-09T21:44:41.792Z,71.84
2018-06-09T21:47:46.133Z,71.63
2018-06-09T21:50:50.920Z,72.07
2018-06-09T21:53:55.256Z,71.71
2018-06-09T21:56:59.602Z,71.97
2018-06-09T22:00:04.350Z,71.32
2018-06-09T22:03:08.660Z,71.82
2018-06-09T22:06:12.962Z,71.92
2018-06-09T22:09:17.237Z,73.33
2018-06-09T22:12:21.636Z,73.69
2018-06-09T22:15:26.033Z,74.23
2018-06-09T22:18:30.297Z,75.09
2018-06-09T22:21:34.644Z,75.90
2018-06-09T22:24:39.018Z,77.36
2018-06-09T22:27:43.280Z,77.77
2018-06-09T22:30:47.568Z,78.48
2018-06-09T22:33:51.918Z,78.16
2018-06-09T22:36:56.273Z,77.52
2018-06-09T22:40:00.566Z,78.20
2018-06-09T22:43:04.729Z,78.71
2018-06-09T22:46:09.033Z,79.33
2018-06-09T22:49:13.416Z,79.48
2018-06-09T22:52:17.682Z,77.03
2018-06-09T22:55:22.399Z,75.84
2018-06-09T22:58:26.784Z,77.07
2018-06-09T23:01:31.441Z,77.05
2018-06-09T23:04:36.279Z,77.46
2018-06-09T23:07:40.673Z,78.20
2018-06-09T23:10:45.254Z,78.18
2018-06-09T23:13:50.111Z,78.00
2018-06-09T23:16:54.601Z,77.95
2018-06-09T23:19:59.018Z,78.95
2018-06-09T23:23:03.523Z,78.38
2018-06-09T23:26:08.056Z,79.83
2018-06-09T23:29:12.440Z,80.39
2018-06-09T23:32:16.707Z,80.04
2018-06-09T23:35:21.101Z,81.08
2018-06-09T23:38:25.385Z,80.56
2018-06-09T23:41:29.743Z,80.92
2018-06-09T23:44:34.141Z,80.86
2018-06-09T23:47:38.557Z,80.73
2018-06-09T23:50:42.981Z,81.23
2018-06-09T23:53:47.433Z,82.83
2018-06-09T23:56:51.741Z,84.28
2018-06-09T23:59:56.042Z,83.97
